createdAt,value
2018-10-04T00:01:14.253Z,10.50
2018-10-04T00:03:42.485Z,10.40
2018-10-04T00:06:10.735Z,10.50
2018-10-04T00:08:38.957Z,10.30
2018-10-04T00:11:07.508Z,10.30
2018-10-04T00:13:35.734Z,10.30
2018-10-04T00:16:03.931Z,10.20
2018-10-04T00:18:32.352Z,10.20
2018-10-04T00:21:00.780Z,10.10
2018-10-04T00:23:29.243Z,10.10
2018-10-04T00:25:57.621Z,10.10
2018-10-04T00:28:25.800Z,10.10
2018-10-04T00:30:54.045Z,10.10
2018-10-04T00:33:22.271Z,10.20
2018-10-04T00:35:50.581Z,10.20
2018-10-04T00:38:18.792Z,10.20
2018-10-04T00:40:47.048Z,10.10
2018-10-04T00:43:15.243Z,10.20
2018-10-04T00:45:43.580Z,10.10
2018-10-04T00:48:11.783Z,10.00
2018-10-04T00:50:40.006Z,10.00
2018-10-04T00:53:08.210Z,9.90
2018-10-04T00:55:36.429Z,10.00
2018-10-04T00:58:04.601Z,9.90
2018-10-04T01:00:32.781Z,9.90
2018-10-04T01:03:00.996Z,9.90
2018-10-04T01:05:29.222Z,9.90
2018-10-04T01:07:57.483Z,9.80
2018-10-04T01:10:25.710Z,9.80
2018-10-04T01:12:53.911Z,9.70
2018-10-04T01:15:22.175Z,9.70
2018-10-04T01:18:00.439Z,9.60
2018-10-04T01:20:28.673Z,9.70
2018-10-04T01:22:56.897Z,9.60
2018-10-04T01:25:25.078Z,9.40
2018-10-04T01:27:53.280Z,9.50
2018-10-04T01:30:21.475Z,9.40
2018-10-04T01:32:49.699Z,9.50
2018-10-04T01:35:18.032Z,9.50
2018-10-04T01:37:46.338Z,9.50
2018-10-04T01:40:14.548Z,9.40
2018-10-04T01:42:42.763Z,9.50
2018-10-04T01:45:11.016Z,9.50
2018-10-04T01:47:39.187Z,9.40
2018-10-04T01:50:07.375Z,9.50
2018-10-04T01:52:35.629Z,9.50
2018-10-04T01:55:03.908Z,9.50
2018-10-04T01:57:32.146Z,9.50
2018-10-04T02:00:00.440Z,9.40
2018-10-04T02:02:28.700Z,9.30
2018-10-04T02:04:56.905Z,9.20
2018-10-04T02:07:25.143Z,9.20
2018-10-04T02:09:53.327Z,9.30
2018-10-04T02:12:21.573Z,9.30
2018-10-04T02:14:49.767Z,9.10
2018-10-04T02:17:18.001Z,9.00
2018-10-04T02:19:46.336Z,9.00
2018-10-04T02:22:14.592Z,8.80
2018-10-04T02:24:42.835Z,8.80
2018-10-04T02:27:11.047Z,8.80
2018-10-04T02:29:39.276Z,8.80
2018-10-04T02:32:07.477Z,8.90
2018-10-04T02:34:35.756Z,9.00
2018-10-04T02:37:03.972Z,8.90
2018-10-04T02:39:32.193Z,8.80
2018-10-04T02:42:00.440Z,8.70
2018-10-04T02:44:28.635Z,8.70
2018-10-04T02:46:56.836Z,8.70
2018-10-04T02:49:25.035Z,8.70
2018-10-04T02:51:53.311Z,8.70
2018-10-04T02:54:25.453Z,8.80
2018-10-04T02:57:01.066Z,9.00
2018-10-04T02:59:29.299Z,9.10
2018-10-04T03:01:57.526Z,9.10
2018-10-04T03:04:25.782Z,9.10
2018-10-04T03:06:53.966Z,9.10
2018-10-04T03:09:22.188Z,9.00
2018-10-04T03:11:50.416Z,9.00
2018-10-04T03:14:18.660Z,9.10
2018-10-04T03:16:46.891Z,9.00
2018-10-04T03:19:15.088Z,9.00
2018-10-04T03:21:43.300Z,9.00
2018-10-04T03:24:11.538Z,8.90
2018-10-04T03:26:39.740Z,8.90
2018-10-04T03:29:07.931Z,8.80
2018-10-04T03:31:36.095Z,8.80
2018-10-04T03:34:04.281Z,8.90
2018-10-04T03:36:32.517Z,8.80
2018-10-04T03:39:00.712Z,8.90
2018-10-04T03:41:28.987Z,8.80
2018-10-04T03:43:57.231Z,8.90
2018-10-04T03:46:25.448Z,8.90
2018-10-04T03:48:53.615Z,8.90
2018-10-04T03:51:21.860Z,8.90
2018-10-04T03:53:50.047Z,8.80
2018-10-04T03:56:18.272Z,8.90
2018-10-04T03:58:46.456Z,8.90
2018-10-04T04:01:14.642Z,9.00
2018-10-04T04:03:42.860Z,8.90
2018-10-04T04:06:11.027Z,8.80
2018-10-04T04:08:39.254Z,8.80
2018-10-04T04:11:07.464Z,8.70
2018-10-04T04:13:35.643Z,8.80
2018-10-04T04:16:03.856Z,8.80
2018-10-04T04:18:32.056Z,8.80
2018-10-04T04:21:00.253Z,8.80
2018-10-04T04:23:28.464Z,8.90
2018-10-04T04:25:56.725Z,9.00
2018-10-04T04:28:24.922Z,8.90
2018-10-04T04:30:53.274Z,9.00
2018-10-04T04:33:21.537Z,9.10
2018-10-04T04:35:49.747Z,9.00
2018-10-04T04:38:17.946Z,9.00
2018-10-04T04:40:46.216Z,9.00
2018-10-04T04:43:14.398Z,9.10
2018-10-04T04:45:42.672Z,9.20
2018-10-04T04:48:10.897Z,9.20
2018-10-04T04:50:39.129Z,9.30
2018-10-04T04:53:18.983Z,9.20
2018-10-04T04:55:47.190Z,9.20
2018-10-04T04:58:16.331Z,9.20
2018-10-04T05:00:45.885Z,9.30
2018-10-04T05:03:14.109Z,9.20
2018-10-04T05:05:42.326Z,9.20
2018-10-04T05:08:11.062Z,9.30
2018-10-04T05:10:39.514Z,9.30
2018-10-04T05:13:08.860Z,9.30
2018-10-04T05:15:37.055Z,9.30
2018-10-04T05:18:05.349Z,9.40
2018-10-04T05:20:33.597Z,9.30
2018-10-04T05:23:01.856Z,9.30
2018-10-04T05:25:30.044Z,9.20
2018-10-04T05:27:58.317Z,9.30
2018-10-04T05:30:26.456Z,9.30
2018-10-04T05:32:54.717Z,9.40
2018-10-04T05:35:22.948Z,9.40
2018-10-04T05:37:51.178Z,9.50
2018-10-04T05:40:19.356Z,9.40
2018-10-04T05:42:47.605Z,9.40
2018-10-04T05:45:15.991Z,9.50
2018-10-04T05:47:44.325Z,9.50
2018-10-04T05:50:12.589Z,9.70
2018-10-04T05:52:40.820Z,9.70
2018-10-04T05:55:09.080Z,9.60
2018-10-04T05:57:37.390Z,9.60
2018-10-04T06:00:17.066Z,9.70
2018-10-04T06:02:45.313Z,9.70
2018-10-04T06:05:13.617Z,9.70
2018-10-04T06:07:41.783Z,9.60
2018-10-04T06:10:10.010Z,9.70
2018-10-04T06:12:38.208Z,9.60
2018-10-04T06:15:06.572Z,9.60
2018-10-04T06:17:34.728Z,9.60
2018-10-04T06:20:02.972Z,9.60
2018-10-04T06:22:31.179Z,9.60
2018-10-04T06:24:59.420Z,9.60
2018-10-04T06:27:27.624Z,9.70
2018-10-04T06:29:55.887Z,9.80
2018-10-04T06:32:24.244Z,9.90
2018-10-04T06:34:52.537Z,9.80
2018-10-04T06:37:20.758Z,9.80
2018-10-04T06:39:48.955Z,9.90
2018-10-04T06:42:17.164Z,9.90
2018-10-04T06:44:45.367Z,9.80
2018-10-04T06:47:13.556Z,9.90
2018-10-04T06:49:41.805Z,9.90
2018-10-04T06:52:10.027Z,9.90
2018-10-04T06:54:38.237Z,10.10
2018-10-04T06:57:06.458Z,10.10
2018-10-04T06:59:34.684Z,10.10
2018-10-04T07:02:02.899Z,10.20
2018-10-04T07:04:31.095Z,10.20
2018-10-04T07:06:59.373Z,10.30
2018-10-04T07:09:27.598Z,10.30
2018-10-04T07:11:55.875Z,10.30
2018-10-04T07:14:24.106Z,10.40
2018-10-04T07:16:52.324Z,10.40
2018-10-04T07:19:20.555Z,10.30
2018-10-04T07:21:48.766Z,10.40
2018-10-04T07:24:17.067Z,10.30
2018-10-04T07:26:45.300Z,10.40
2018-10-04T07:29:13.508Z,10.40
2018-10-04T07:31:41.769Z,10.50
2018-10-04T07:34:09.949Z,10.50
2018-10-04T07:36:38.138Z,10.50
2018-10-04T07:39:08.695Z,10.50
2018-10-04T07:41:37.222Z,10.60
2018-10-04T07:44:05.689Z,10.70
2018-10-04T07:46:33.952Z,10.80
2018-10-04T07:49:02.197Z,10.80
2018-10-04T07:51:30.608Z,10.90
2018-10-04T07:53:58.825Z,10.90
2018-10-04T07:56:27.123Z,10.80
2018-10-04T07:58:55.568Z,10.90
2018-10-04T08:01:23.775Z,10.90
2018-10-04T08:03:52.037Z,11.00
2018-10-04T08:06:20.356Z,11.00
2018-10-04T08:08:48.568Z,11.10
2018-10-04T08:11:17.055Z,11.20
2018-10-04T08:13:45.344Z,11.30
2018-10-04T08:16:13.804Z,11.40
2018-10-04T08:18:42.075Z,11.40
2018-10-04T08:21:10.778Z,11.40
2018-10-04T08:23:39.003Z,11.50
2018-10-04T08:26:07.596Z,11.50
2018-10-04T08:28:36.299Z,11.60
2018-10-04T08:31:04.829Z,11.70
2018-10-04T08:33:33.072Z,11.70
2018-10-04T08:36:01.323Z,11.80
2018-10-04T08:38:29.558Z,11.90
2018-10-04T08:40:57.776Z,11.90
2018-10-04T08:43:25.996Z,12.00
2018-10-04T08:45:54.297Z,12.00
2018-10-04T08:48:22.557Z,12.10
2018-10-04T08:50:52.495Z,12.20
2018-10-04T08:53:20.699Z,12.30
2018-10-04T08:55:48.949Z,12.40
2018-10-04T08:58:17.209Z,12.60
2018-10-04T09:00:45.448Z,12.60
2018-10-04T09:03:13.658Z,12.70
2018-10-04T09:05:41.872Z,12.90
2018-10-04T09:08:10.122Z,13.10
2018-10-04T09:10:38.390Z,13.30
2018-10-04T09:13:06.574Z,13.20
2018-10-04T09:15:34.822Z,13.30
2018-10-04T09:18:03.029Z,13.30
2018-10-04T09:20:31.199Z,13.30
2018-10-04T09:22:59.405Z,13.40
2018-10-04T09:25:27.586Z,13.40
2018-10-04T09:27:55.787Z,13.70
2018-10-04T09:30:29.495Z,13.50
2018-10-04T09:32:57.744Z,13.60
2018-10-04T09:35:25.954Z,13.70
2018-10-04T09:37:54.134Z,13.70
2018-10-04T09:40:22.315Z,13.70
2018-10-04T09:42:50.543Z,13.80
2018-10-04T09:45:18.742Z,13.80
2018-10-04T09:47:46.988Z,13.80
2018-10-04T09:50:15.204Z,14.00
2018-10-04T09:52:43.411Z,13.90
2018-10-04T09:55:13.910Z,14.00
2018-10-04T09:57:43.607Z,14.10
2018-10-04T10:00:18.004Z,14.20
2018-10-04T10:02:51.496Z,14.20
2018-10-04T10:05:19.913Z,14.30
2018-10-04T10:07:49.107Z,14.30
2018-10-04T10:10:17.317Z,14.30
2018-10-04T10:12:46.073Z,14.30
2018-10-04T10:15:14.755Z,14.40
2018-10-04T10:17:43.116Z,14.60
2018-10-04T10:20:11.877Z,14.70
2018-10-04T10:22:40.312Z,14.50
2018-10-04T10:25:09.351Z,14.50
2018-10-04T10:27:37.544Z,14.60
2018-10-04T10:30:05.868Z,14.80
2018-10-04T10:32:34.452Z,15.00
2018-10-04T10:35:02.673Z,15.00
2018-10-04T10:37:30.864Z,15.10
2018-10-04T10:39:59.443Z,15.10
2018-10-04T10:42:27.660Z,15.00
2018-10-04T10:44:55.855Z,15.20
2018-10-04T10:47:24.039Z,15.30
2018-10-04T10:49:52.255Z,15.40
2018-10-04T10:52:20.507Z,15.20
2018-10-04T10:54:48.692Z,15.40
2018-10-04T10:57:16.886Z,15.60
2018-10-04T10:59:45.087Z,15.60
2018-10-04T11:02:13.302Z,15.40
2018-10-04T11:04:41.518Z,15.30
2018-10-04T11:07:09.753Z,15.50
2018-10-04T11:09:37.985Z,15.60
2018-10-04T11:12:06.257Z,15.60
2018-10-04T11:14:34.500Z,15.50
2018-10-04T11:17:02.728Z,15.40
2018-10-04T11:19:30.923Z,15.50
2018-10-04T11:21:59.132Z,15.70
2018-10-04T11:24:27.374Z,15.90
2018-10-04T11:26:55.560Z,15.80
2018-10-04T11:29:23.823Z,15.80
2018-10-04T11:31:51.981Z,15.80
2018-10-04T11:34:20.240Z,15.80
2018-10-04T11:36:48.540Z,15.80
2018-10-04T11:39:16.783Z,15.80
2018-10-04T11:41:44.977Z,15.90
2018-10-04T11:44:15.645Z,15.90
2018-10-04T11:46:44.669Z,16.00
2018-10-04T11:49:12.905Z,15.90
2018-10-04T11:51:41.115Z,15.90
2018-10-04T11:54:09.341Z,15.90
2018-10-04T11:56:37.601Z,16.00
2018-10-04T11:59:05.819Z,16.00
2018-10-04T12:01:34.047Z,16.10
2018-10-04T12:04:02.307Z,16.10
2018-10-04T12:06:30.533Z,16.20
2018-10-04T12:08:58.744Z,16.20
2018-10-04T12:11:26.942Z,16.30
2018-10-04T12:13:55.165Z,16.30
2018-10-04T12:16:23.380Z,16.40
2018-10-04T12:18:51.658Z,16.50
2018-10-04T12:21:19.853Z,16.40
2018-10-04T12:23:48.072Z,16.30
2018-10-04T12:26:16.252Z,16.40
2018-10-04T12:28:44.468Z,16.60
2018-10-04T12:31:12.697Z,16.70
2018-10-04T12:33:40.871Z,16.80
2018-10-04T12:36:09.203Z,16.90
2018-10-04T12:38:37.387Z,17.00
2018-10-04T12:41:05.616Z,17.10
2018-10-04T12:43:33.804Z,17.20
2018-10-04T12:46:02.018Z,17.20
2018-10-04T12:48:30.234Z,17.30
2018-10-04T12:50:58.485Z,17.40
2018-10-04T12:53:26.731Z,17.50
2018-10-04T12:55:54.968Z,17.60
2018-10-04T12:58:23.261Z,17.80
2018-10-04T13:00:51.595Z,17.90
2018-10-04T13:03:19.736Z,17.90
2018-10-04T13:05:47.972Z,18.20
2018-10-04T13:08:16.213Z,18.30
2018-10-04T13:10:44.505Z,18.40
2018-10-04T13:13:12.704Z,18.40
2018-10-04T13:15:40.897Z,18.50
2018-10-04T13:18:09.139Z,18.80
2018-10-04T13:20:37.442Z,18.70
2018-10-04T13:23:05.531Z,18.90
2018-10-04T13:25:33.777Z,19.00
2018-10-04T13:28:02.007Z,18.80
2018-10-04T13:30:30.233Z,18.80
2018-10-04T13:32:58.418Z,18.90
2018-10-04T13:35:26.600Z,19.00
2018-10-04T13:37:54.858Z,19.10
2018-10-04T13:40:23.077Z,19.00
2018-10-04T13:42:51.268Z,18.90
2018-10-04T13:45:19.475Z,18.90
2018-10-04T13:47:47.664Z,18.90
2018-10-04T13:50:15.834Z,19.10
2018-10-04T13:52:44.068Z,19.30
2018-10-04T13:55:12.287Z,19.30
2018-10-04T13:57:40.516Z,19.50
2018-10-04T14:00:08.752Z,19.60
2018-10-04T14:02:36.964Z,19.80
2018-10-04T14:05:05.163Z,20.00
2018-10-04T14:07:33.389Z,20.30
2018-10-04T14:10:01.572Z,20.00
2018-10-04T14:12:29.796Z,20.00
2018-10-04T14:14:58.224Z,19.90
2018-10-04T14:17:26.517Z,20.00
2018-10-04T14:19:54.789Z,20.20
2018-10-04T14:22:23.004Z,20.30
2018-10-04T14:24:51.358Z,20.20
2018-10-04T14:27:19.505Z,20.10
2018-10-04T14:29:47.759Z,20.00
2018-10-04T14:32:15.992Z,20.00
2018-10-04T14:34:44.195Z,20.10
2018-10-04T14:37:12.495Z,20.10
2018-10-04T14:39:40.843Z,20.00
2018-10-04T14:42:09.464Z,20.00
2018-10-04T14:44:37.701Z,20.10
2018-10-04T14:47:06.449Z,20.00
2018-10-04T14:49:34.883Z,19.90
2018-10-04T14:52:03.184Z,19.60
2018-10-04T14:54:31.432Z,19.50
2018-10-04T14:56:59.707Z,19.10
2018-10-04T14:59:28.004Z,19.20
2018-10-04T15:01:56.234Z,19.30
2018-10-04T15:04:24.549Z,19.30
2018-10-04T15:06:52.703Z,19.20
2018-10-04T15:09:20.921Z,19.30
2018-10-04T15:11:49.272Z,19.20
2018-10-04T15:14:17.562Z,19.10
2018-10-04T15:16:45.831Z,19.00
2018-10-04T15:19:14.199Z,19.00
2018-10-04T15:21:43.483Z,18.90
2018-10-04T15:24:11.744Z,18.80
2018-10-04T15:26:40.069Z,18.70
2018-10-04T15:29:08.304Z,18.60
2018-10-04T15:31:36.538Z,18.60
2018-10-04T15:34:04.714Z,18.60
2018-10-04T15:36:32.921Z,18.70
2018-10-04T15:39:01.102Z,18.70
2018-10-04T15:41:29.311Z,18.60
2018-10-04T15:43:57.552Z,18.60
2018-10-04T15:46:25.775Z,18.50
2018-10-04T15:48:54.040Z,18.50
2018-10-04T15:51:22.280Z,18.40
2018-10-04T15:53:50.475Z,18.30
2018-10-04T15:56:18.678Z,18.30
2018-10-04T15:58:46.963Z,18.20
2018-10-04T16:01:15.172Z,18.20
2018-10-04T16:03:43.419Z,18.20
2018-10-04T16:06:11.549Z,18.10
2018-10-04T16:08:39.783Z,18.10
2018-10-04T16:11:07.655Z,18.00
2018-10-04T16:13:35.920Z,18.00
2018-10-04T16:16:04.395Z,17.90
2018-10-04T16:18:32.733Z,17.70
2018-10-04T16:21:00.977Z,17.70
2018-10-04T16:23:29.186Z,17.70
2018-10-04T16:25:57.595Z,17.60
2018-10-04T16:28:26.017Z,17.60
2018-10-04T16:30:54.345Z,17.50
2018-10-04T16:33:22.565Z,17.40
2018-10-04T16:35:50.771Z,17.40
2018-10-04T16:38:19.109Z,17.40
2018-10-04T16:40:47.347Z,17.50
2018-10-04T16:43:15.732Z,17.40
2018-10-04T16:45:43.931Z,17.30
2018-10-04T16:48:12.239Z,17.30
2018-10-04T16:50:40.552Z,17.20
2018-10-04T16:53:08.941Z,17.10
2018-10-04T16:55:44.014Z,17.00
2018-10-04T16:58:12.511Z,17.00
2018-10-04T17:00:40.921Z,16.90
2018-10-04T17:03:09.255Z,16.70
2018-10-04T17:05:37.468Z,16.60
2018-10-04T17:08:05.764Z,16.50
2018-10-04T17:10:34.244Z,16.40
2018-10-04T17:13:02.710Z,16.40
2018-10-04T17:15:30.962Z,16.30
2018-10-04T17:17:59.151Z,16.30
2018-10-04T17:20:27.421Z,16.20
2018-10-04T17:22:55.617Z,16.10
2018-10-04T17:25:23.852Z,16.00
2018-10-04T17:27:52.090Z,15.90
2018-10-04T17:30:20.257Z,15.80
2018-10-04T17:32:48.484Z,15.70
2018-10-04T17:35:16.746Z,15.60
2018-10-04T17:37:44.980Z,15.50
2018-10-04T17:40:13.195Z,15.50
2018-10-04T17:42:41.588Z,15.50
2018-10-04T17:45:09.929Z,15.40
2018-10-04T17:47:38.317Z,15.30
2018-10-04T17:50:06.431Z,15.30
2018-10-04T17:52:34.674Z,15.30
2018-10-04T17:55:02.914Z,15.30
2018-10-04T17:57:31.173Z,15.30
2018-10-04T17:59:59.416Z,15.20
2018-10-04T18:02:27.754Z,15.10
2018-10-04T18:04:56.250Z,15.00
2018-10-04T18:07:24.555Z,15.00
2018-10-04T18:09:52.731Z,15.00
2018-10-04T18:12:20.988Z,14.90
2018-10-04T18:14:49.229Z,14.90
2018-10-04T18:17:17.524Z,14.80
2018-10-04T18:19:45.775Z,14.80
2018-10-04T18:22:14.749Z,14.80
2018-10-04T18:24:42.960Z,14.70
2018-10-04T18:27:11.181Z,14.70
2018-10-04T18:29:39.481Z,14.70
2018-10-04T18:32:07.724Z,14.80
2018-10-04T18:34:36.057Z,14.70
2018-10-04T18:37:04.368Z,14.50
2018-10-04T18:39:32.841Z,14.50
2018-10-04T18:42:01.236Z,14.50
2018-10-04T18:44:30.044Z,14.40
2018-10-04T18:46:58.318Z,14.30
2018-10-04T18:49:26.648Z,14.20
2018-10-04T18:51:54.958Z,14.20
2018-10-04T18:54:23.403Z,14.20
2018-10-04T18:56:51.658Z,14.20
2018-10-04T18:59:20.013Z,14.20
2018-10-04T19:01:48.238Z,14.10
2018-10-04T19:04:16.428Z,14.00
2018-10-04T19:06:44.722Z,13.90
2018-10-04T19:09:12.977Z,13.90
2018-10-04T19:11:41.172Z,13.80
2018-10-04T19:14:09.460Z,13.70
2018-10-04T19:16:37.840Z,13.70
2018-10-04T19:19:06.363Z,13.70
2018-10-04T19:21:34.697Z,13.70
2018-10-04T19:24:02.952Z,13.70
2018-10-04T19:26:31.165Z,13.50
2018-10-04T19:28:59.471Z,13.50
2018-10-04T19:31:27.741Z,13.50
2018-10-04T19:33:56.021Z,13.50
2018-10-04T19:36:24.432Z,13.40
2018-10-04T19:38:52.610Z,13.50
2018-10-04T19:41:20.870Z,13.40
2018-10-04T19:43:49.134Z,13.30
2018-10-04T19:46:17.408Z,13.30
2018-10-04T19:48:45.684Z,13.20
2018-10-04T19:51:14.020Z,13.20
2018-10-04T19:53:42.235Z,13.20
2018-10-04T19:56:10.468Z,13.20
2018-10-04T19:58:38.712Z,13.10
2018-10-04T20:01:06.963Z,13.10
2018-10-04T20:03:35.308Z,13.10
2018-10-04T20:06:03.529Z,13.00
2018-10-04T20:08:31.796Z,13.00
2018-10-04T20:11:00.051Z,12.90
2018-10-04T20:13:28.604Z,12.90
2018-10-04T20:15:57.487Z,12.90
2018-10-04T20:18:26.231Z,12.90
2018-10-04T20:20:54.795Z,12.90
2018-10-04T20:23:23.260Z,12.90
2018-10-04T20:25:51.701Z,12.80
2018-10-04T20:28:20.076Z,12.70
2018-10-04T20:30:48.498Z,12.70
2018-10-04T20:33:17.496Z,12.80
2018-10-04T20:35:45.777Z,12.70
2018-10-04T20:38:14.049Z,12.70
2018-10-04T20:40:42.750Z,12.70
2018-10-04T20:43:10.968Z,12.70
2018-10-04T20:45:39.196Z,12.70
2018-10-04T20:48:07.452Z,12.60
2018-10-04T20:50:35.703Z,12.50
2018-10-04T20:53:03.904Z,12.50
2018-10-04T20:55:32.112Z,12.40
2018-10-04T20:58:00.339Z,12.40
2018-10-04T21:00:28.540Z,12.50
2018-10-04T21:02:56.764Z,12.50
2018-10-04T21:05:24.985Z,12.50
2018-10-04T21:07:53.246Z,12.40
2018-10-04T21:10:21.466Z,12.30
2018-10-04T21:12:49.680Z,12.30
2018-10-04T21:15:18.018Z,12.20
2018-10-04T21:17:46.404Z,12.40
2018-10-04T21:20:14.658Z,12.30
2018-10-04T21:22:43.120Z,12.20
2018-10-04T21:25:11.322Z,12.30
2018-10-04T21:27:39.618Z,12.30
2018-10-04T21:30:08.584Z,12.20
2018-10-04T21:32:36.969Z,12.30
2018-10-04T21:35:05.176Z,12.30
2018-10-04T21:37:33.365Z,12.20
2018-10-04T21:40:01.571Z,12.20
2018-10-04T21:42:29.839Z,12.30
2018-10-04T21:44:58.066Z,12.10
2018-10-04T21:47:26.281Z,12.20
2018-10-04T21:49:54.571Z,12.00
2018-10-04T21:52:22.808Z,12.10
2018-10-04T21:54:50.986Z,12.10
2018-10-04T21:57:19.192Z,12.10
2018-10-04T21:59:47.486Z,11.90
2018-10-04T22:02:16.259Z,11.90
2018-10-04T22:04:44.436Z,12.00
2018-10-04T22:07:12.678Z,11.90
2018-10-04T22:09:40.957Z,11.80
2018-10-04T22:12:09.197Z,11.90
2018-10-04T22:14:37.400Z,11.90
2018-10-04T22:17:05.686Z,11.90
2018-10-04T22:19:33.927Z,11.80
2018-10-04T22:22:02.177Z,11.70
2018-10-04T22:24:30.401Z,11.70
2018-10-04T22:26:58.651Z,11.70
2018-10-04T22:29:26.896Z,11.80
2018-10-04T22:31:55.100Z,11.90
2018-10-04T22:34:23.422Z,11.80
2018-10-04T22:36:51.641Z,11.80
2018-10-04T22:39:19.865Z,11.70
2018-10-04T22:41:48.073Z,11.70
2018-10-04T22:44:16.341Z,11.80
2018-10-04T22:46:44.585Z,11.80
2018-10-04T22:49:12.786Z,11.80
2018-10-04T22:51:41.083Z,11.80
2018-10-04T22:54:09.347Z,11.90
2018-10-04T22:56:37.619Z,11.80
2018-10-04T22:59:06.003Z,11.80
2018-10-04T23:01:34.212Z,11.80
2018-10-04T23:04:02.423Z,11.80
2018-10-04T23:06:30.596Z,11.70
2018-10-04T23:08:58.961Z,11.80
2018-10-04T23:11:27.229Z,11.70
2018-10-04T23:13:55.425Z,11.70
2018-10-04T23:16:23.616Z,11.70
2018-10-04T23:18:51.819Z,11.70
2018-10-04T23:21:20.030Z,11.70
2018-10-04T23:23:48.235Z,11.70
2018-10-04T23:26:16.437Z,11.50
2018-10-04T23:28:44.590Z,11.50
2018-10-04T23:31:19.216Z,11.40
2018-10-04T23:33:47.412Z,11.50
2018-10-04T23:36:15.596Z,11.40
2018-10-04T23:38:43.799Z,11.40
2018-10-04T23:41:12.011Z,11.40
2018-10-04T23:43:40.306Z,11.40
2018-10-04T23:46:08.690Z,11.30
2018-10-04T23:48:36.952Z,11.20
2018-10-04T23:51:05.181Z,11.30
2018-10-04T23:53:33.511Z,11.30
2018-10-04T23:56:01.750Z,11.30
2018-10-04T23:58:30.361Z,11.30
